sensor_id;sensor_type;location;lat;lon;timestamp;temperature;humidity
21092;DHT22;10704;42.678;23.288;2022-09-09T00:00:25;17.80;99.90
21092;DHT22;10704;42.678;23.288;2022-09-09T00:02:55;17.80;99.90
21092;DHT22;10704;42.678;23.288;2022-09-09T00:07:55;17.70;99.90
21092;DHT22;10704;42.678;23.288;2022-09-09T00:10:34;17.70;99.90
21092;DHT22;10704;42.678;23.288;2022-09-09T00:21:08;17.70;99.90
21092;DHT22;10704;42.678;23.288;2022-09-09T00:23:52;17.80;99.90
21092;DHT22;10704;42.678;23.288;2022-09-09T00:26:38;17.80;99.90
21092;DHT22;10704;42.678;23.288;2022-09-09T00:32:28;17.80;99.90
21092;DHT22;10704;42.678;23.288;2022-09-09T00:38:34;17.80;99.90
21092;DHT22;10704;42.678;23.288;2022-09-09T00:41:09;17.60;99.90
21092;DHT22;10704;42.678;23.288;2022-09-09T00:43:39;17.60;99.90
21092;DHT22;10704;42.678;23.288;2022-09-09T00:48:51;17.80;99.90
21092;DHT22;10704;42.678;23.288;2022-09-09T00:51:41;17.70;99.90
21092;DHT22;10704;42.678;23.288;2022-09-09T00:54:39;17.80;99.90
21092;DHT22;10704;42.678;23.288;2022-09-09T00:59:54;17.50;99.90
21092;DHT22;10704;42.678;23.288;2022-09-09T01:02:28;17.50;99.90
21092;DHT22;10704;42.678;23.288;2022-09-09T01:04:56;17.40;99.90
21092;DHT22;10704;42.678;23.288;2022-09-09T01:07:24;17.40;99.90
21092;DHT22;10704;42.678;23.288;2022-09-09T01:09:58;17.20;99.90
21092;DHT22;10704;42.678;23.288;2022-09-09T01:12:30;17.20;99.90
21092;DHT22;10704;42.678;23.288;2022-09-09T01:15:16;17.10;99.90
21092;DHT22;10704;42.678;23.288;2022-09-09T01:18:13;17.10;99.90
21092;DHT22;10704;42.678;23.288;2022-09-09T01:23:48;17.00;99.90
21092;DHT22;10704;42.678;23.288;2022-09-09T01:28:51;17.00;99.90
21092;DHT22;10704;42.678;23.288;2022-09-09T01:31:41;16.90;99.90
21092;DHT22;10704;42.678;23.288;2022-09-09T01:34:15;16.90;99.90
21092;DHT22;10704;42.678;23.288;2022-09-09T01:36:46;16.90;99.90
21092;DHT22;10704;42.678;23.288;2022-09-09T01:39:14;16.90;99.90
21092;DHT22;10704;42.678;23.288;2022-09-09T01:41:40;16.90;99.90
21092;DHT22;10704;42.678;23.288;2022-09-09T01:44:10;16.80;99.90
21092;DHT22;10704;42.678;23.288;2022-09-09T01:46:38;16.80;99.90
21092;DHT22;10704;42.678;23.288;2022-09-09T01:49:08;16.70;99.90
21092;DHT22;10704;42.678;23.288;2022-09-09T01:51:36;16.70;99.90
21092;DHT22;10704;42.678;23.288;2022-09-09T01:54:06;16.70;99.90
21092;DHT22;10704;42.678;23.288;2022-09-09T02:02:04;16.40;99.90
21092;DHT22;10704;42.678;23.288;2022-09-09T02:07:39;16.50;99.90
21092;DHT22;10704;42.678;23.288;2022-09-09T02:10:30;16.40;99.90
21092;DHT22;10704;42.678;23.288;2022-09-09T02:13:18;16.40;99.90
21092;DHT22;10704;42.678;23.288;2022-09-09T02:16:01;16.40;99.90
21092;DHT22;10704;42.678;23.288;2022-09-09T02:21:11;16.50;99.90
21092;DHT22;10704;42.678;23.288;2022-09-09T02:23:41;16.50;99.90
21092;DHT22;10704;42.678;23.288;2022-09-09T02:26:12;16.50;99.90
21092;DHT22;10704;42.678;23.288;2022-09-09T02:28:41;16.40;99.90
21092;DHT22;10704;42.678;23.288;2022-09-09T02:31:08;16.40;99.90
21092;DHT22;10704;42.678;23.288;2022-09-09T02:33:46;16.40;99.90
21092;DHT22;10704;42.678;23.288;2022-09-09T02:36:15;16.30;99.90
21092;DHT22;10704;42.678;23.288;2022-09-09T02:38:46;16.40;99.90
21092;DHT22;10704;42.678;23.288;2022-09-09T02:41:24;16.40;99.90
21092;DHT22;10704;42.678;23.288;2022-09-09T02:43:51;16.40;99.90
21092;DHT22;10704;42.678;23.288;2022-09-09T02:49:08;16.30;99.90
21092;DHT22;10704;42.678;23.288;2022-09-09T02:55:33;16.00;99.90
21092;DHT22;10704;42.678;23.288;2022-09-09T02:58:05;15.90;99.90
21092;DHT22;10704;42.678;23.288;2022-09-09T03:00:34;16.00;99.90
21092;DHT22;10704;42.678;23.288;2022-09-09T03:03:03;15.90;99.90
21092;DHT22;10704;42.678;23.288;2022-09-09T03:05:31;15.90;99.90
21092;DHT22;10704;42.678;23.288;2022-09-09T03:07:58;15.90;99.90
21092;DHT22;10704;42.678;23.288;2022-09-09T03:10:24;15.90;99.90
21092;DHT22;10704;42.678;23.288;2022-09-09T03:12:50;15.80;99.90
21092;DHT22;10704;42.678;23.288;2022-09-09T03:15:16;15.90;99.90
21092;DHT22;10704;42.678;23.288;2022-09-09T03:17:43;15.90;99.90
21092;DHT22;10704;42.678;23.288;2022-09-09T03:20:09;15.90;99.90
21092;DHT22;10704;42.678;23.288;2022-09-09T03:22:37;15.90;99.90
21092;DHT22;10704;42.678;23.288;2022-09-09T03:25:03;16.00;99.90
21092;DHT22;10704;42.678;23.288;2022-09-09T03:27:29;16.00;99.90
21092;DHT22;10704;42.678;23.288;2022-09-09T03:29:56;16.00;99.90
21092;DHT22;10704;42.678;23.288;2022-09-09T03:32:24;16.00;99.90
21092;DHT22;10704;42.678;23.288;2022-09-09T03:34:52;16.10;99.90
21092;DHT22;10704;42.678;23.288;2022-09-09T03:37:19;16.20;99.90
21092;DHT22;10704;42.678;23.288;2022-09-09T03:39:48;16.20;99.90
21092;DHT22;10704;42.678;23.288;2022-09-09T03:42:16;16.30;99.90
21092;DHT22;10704;42.678;23.288;2022-09-09T03:44:47;16.20;99.90
21092;DHT22;10704;42.678;23.288;2022-09-09T03:47:19;16.30;99.90
21092;DHT22;10704;42.678;23.288;2022-09-09T03:49:45;16.30;99.90
21092;DHT22;10704;42.678;23.288;2022-09-09T03:52:12;16.40;99.90
21092;DHT22;10704;42.678;23.288;2022-09-09T03:54:38;16.20;99.90
21092;DHT22;10704;42.678;23.288;2022-09-09T03:57:05;16.10;99.90
21092;DHT22;10704;42.678;23.288;2022-09-09T03:59:30;16.10;99.90
21092;DHT22;10704;42.678;23.288;2022-09-09T04:01:56;16.10;99.90
21092;DHT22;10704;42.678;23.288;2022-09-09T04:04:25;16.10;99.90
21092;DHT22;10704;42.678;23.288;2022-09-09T04:06:52;16.10;99.90
21092;DHT22;10704;42.678;23.288;2022-09-09T04:09:18;16.10;99.90
21092;DHT22;10704;42.678;23.288;2022-09-09T04:11:44;16.20;99.90
21092;DHT22;10704;42.678;23.288;2022-09-09T04:14:11;16.30;99.90
21092;DHT22;10704;42.678;23.288;2022-09-09T04:16:38;16.30;99.90
21092;DHT22;10704;42.678;23.288;2022-09-09T04:19:05;16.30;99.90
21092;DHT22;10704;42.678;23.288;2022-09-09T04:21:34;16.20;99.90
21092;DHT22;10704;42.678;23.288;2022-09-09T04:24:01;16.20;99.90
21092;DHT22;10704;42.678;23.288;2022-09-09T04:26:27;16.40;99.90
21092;DHT22;10704;42.678;23.288;2022-09-09T04:28:53;16.50;99.90
21092;DHT22;10704;42.678;23.288;2022-09-09T04:31:21;16.60;99.90
21092;DHT22;10704;42.678;23.288;2022-09-09T04:33:50;16.60;99.90
21092;DHT22;10704;42.678;23.288;2022-09-09T04:36:17;16.60;99.90
21092;DHT22;10704;42.678;23.288;2022-09-09T04:38:46;16.70;99.90
21092;DHT22;10704;42.678;23.288;2022-09-09T04:41:13;17.00;99.90
21092;DHT22;10704;42.678;23.288;2022-09-09T04:43:42;17.10;99.90
21092;DHT22;10704;42.678;23.288;2022-09-09T04:46:09;17.20;99.90
21092;DHT22;10704;42.678;23.288;2022-09-09T04:48:35;17.20;99.90
21092;DHT22;10704;42.678;23.288;2022-09-09T04:51:05;17.10;99.90
21092;DHT22;10704;42.678;23.288;2022-09-09T04:53:33;16.90;99.90
21092;DHT22;10704;42.678;23.288;2022-09-09T04:58:36;17.10;99.90
21092;DHT22;10704;42.678;23.288;2022-09-09T05:01:09;17.10;99.90
21092;DHT22;10704;42.678;23.288;2022-09-09T05:07:24;17.40;99.90
21092;DHT22;10704;42.678;23.288;2022-09-09T05:09:52;17.50;99.90
21092;DHT22;10704;42.678;23.288;2022-09-09T05:12:19;17.70;99.90
21092;DHT22;10704;42.678;23.288;2022-09-09T05:14:50;17.70;99.90
21092;DHT22;10704;42.678;23.288;2022-09-09T05:17:16;17.90;99.90
21092;DHT22;10704;42.678;23.288;2022-09-09T05:19:42;17.90;99.90
21092;DHT22;10704;42.678;23.288;2022-09-09T05:22:08;18.00;99.90
21092;DHT22;10704;42.678;23.288;2022-09-09T05:24:41;18.10;99.90
21092;DHT22;10704;42.678;23.288;2022-09-09T05:27:08;18.20;99.90
21092;DHT22;10704;42.678;23.288;2022-09-09T05:29:38;18.30;99.90
21092;DHT22;10704;42.678;23.288;2022-09-09T05:32:07;18.40;99.90
21092;DHT22;10704;42.678;23.288;2022-09-09T05:34:34;18.50;99.90
21092;DHT22;10704;42.678;23.288;2022-09-09T05:37:00;18.60;99.90
21092;DHT22;10704;42.678;23.288;2022-09-09T05:39:26;18.70;99.90
21092;DHT22;10704;42.678;23.288;2022-09-09T05:41:53;18.80;99.90
21092;DHT22;10704;42.678;23.288;2022-09-09T05:44:19;19.00;99.90
21092;DHT22;10704;42.678;23.288;2022-09-09T05:46:45;19.10;99.90
21092;DHT22;10704;42.678;23.288;2022-09-09T05:49:12;19.20;99.90
21092;DHT22;10704;42.678;23.288;2022-09-09T05:51:40;19.30;99.90
21092;DHT22;10704;42.678;23.288;2022-09-09T05:54:10;19.40;99.90
21092;DHT22;10704;42.678;23.288;2022-09-09T05:56:40;19.60;99.90
21092;DHT22;10704;42.678;23.288;2022-09-09T05:59:07;19.70;99.90
21092;DHT22;10704;42.678;23.288;2022-09-09T06:01:35;19.90;99.90
21092;DHT22;10704;42.678;23.288;2022-09-09T06:04:02;19.90;99.90
21092;DHT22;10704;42.678;23.288;2022-09-09T06:06:32;20.10;99.90
21092;DHT22;10704;42.678;23.288;2022-09-09T06:09:05;20.10;99.90
21092;DHT22;10704;42.678;23.288;2022-09-09T06:11:34;20.10;99.90
21092;DHT22;10704;42.678;23.288;2022-09-09T06:14:02;20.20;99.90
21092;DHT22;10704;42.678;23.288;2022-09-09T06:16:30;20.30;99.90
21092;DHT22;10704;42.678;23.288;2022-09-09T06:18:59;20.40;99.90
21092;DHT22;10704;42.678;23.288;2022-09-09T06:21:29;20.40;99.90
21092;DHT22;10704;42.678;23.288;2022-09-09T06:23:56;20.50;99.90
21092;DHT22;10704;42.678;23.288;2022-09-09T06:26:24;20.20;99.90
21092;DHT22;10704;42.678;23.288;2022-09-09T06:28:54;20.10;99.90
21092;DHT22;10704;42.678;23.288;2022-09-09T06:31:22;20.30;99.90
21092;DHT22;10704;42.678;23.288;2022-09-09T06:33:50;20.50;99.90
21092;DHT22;10704;42.678;23.288;2022-09-09T06:36:22;20.90;99.90
21092;DHT22;10704;42.678;23.288;2022-09-09T06:38:49;21.10;99.90
21092;DHT22;10704;42.678;23.288;2022-09-09T06:41:16;21.20;99.90
21092;DHT22;10704;42.678;23.288;2022-09-09T06:43:45;21.20;99.90
21092;DHT22;10704;42.678;23.288;2022-09-09T06:48:39;21.60;99.90
21092;DHT22;10704;42.678;23.288;2022-09-09T06:51:19;21.60;99.90
21092;DHT22;10704;42.678;23.288;2022-09-09T06:53:49;21.60;99.90
21092;DHT22;10704;42.678;23.288;2022-09-09T06:58:45;21.90;99.90
21092;DHT22;10704;42.678;23.288;2022-09-09T07:01:18;21.90;99.90
21092;DHT22;10704;42.678;23.288;2022-09-09T07:03:47;22.10;99.90
21092;DHT22;10704;42.678;23.288;2022-09-09T07:06:22;22.10;99.90
21092;DHT22;10704;42.678;23.288;2022-09-09T07:08:55;22.20;99.90
21092;DHT22;10704;42.678;23.288;2022-09-09T07:11:29;22.40;99.90
21092;DHT22;10704;42.678;23.288;2022-09-09T07:14:00;22.70;99.90
21092;DHT22;10704;42.678;23.288;2022-09-09T07:16:27;22.70;99.90
21092;DHT22;10704;42.678;23.288;2022-09-09T07:18:57;22.70;99.90
21092;DHT22;10704;42.678;23.288;2022-09-09T07:21:29;22.80;99.90
21092;DHT22;10704;42.678;23.288;2022-09-09T07:23:55;23.10;99.90
21092;DHT22;10704;42.678;23.288;2022-09-09T07:26:24;23.30;99.90
21092;DHT22;10704;42.678;23.288;2022-09-09T07:28:52;23.40;99.90
21092;DHT22;10704;42.678;23.288;2022-09-09T07:31:35;23.70;99.90
21092;DHT22;10704;42.678;23.288;2022-09-09T07:34:04;24.10;99.90
21092;DHT22;10704;42.678;23.288;2022-09-09T07:36:37;24.30;99.90
21092;DHT22;10704;42.678;23.288;2022-09-09T07:39:10;24.60;99.90
21092;DHT22;10704;42.678;23.288;2022-09-09T07:41:40;25.00;99.90
21092;DHT22;10704;42.678;23.288;2022-09-09T07:44:09;25.10;99.90
21092;DHT22;10704;42.678;23.288;2022-09-09T07:46:37;25.50;98.50
21092;DHT22;10704;42.678;23.288;2022-09-09T07:49:07;25.30;97.80
21092;DHT22;10704;42.678;23.288;2022-09-09T07:51:36;25.50;95.80
21092;DHT22;10704;42.678;23.288;2022-09-09T07:54:06;25.80;94.60
21092;DHT22;10704;42.678;23.288;2022-09-09T07:56:33;25.60;94.70
21092;DHT22;10704;42.678;23.288;2022-09-09T07:59:01;25.70;94.40
21092;DHT22;10704;42.678;23.288;2022-09-09T08:01:32;25.80;93.90
21092;DHT22;10704;42.678;23.288;2022-09-09T08:04:02;25.80;93.70
21092;DHT22;10704;42.678;23.288;2022-09-09T08:06:35;25.80;93.10
21092;DHT22;10704;42.678;23.288;2022-09-09T08:09:03;26.00;93.60
21092;DHT22;10704;42.678;23.288;2022-09-09T08:11:30;26.30;92.20
21092;DHT22;10704;42.678;23.288;2022-09-09T08:13:56;26.50;92.20
21092;DHT22;10704;42.678;23.288;2022-09-09T08:16:25;26.80;91.30
21092;DHT22;10704;42.678;23.288;2022-09-09T08:18:52;27.30;90.50
21092;DHT22;10704;42.678;23.288;2022-09-09T08:21:27;27.60;86.80
21092;DHT22;10704;42.678;23.288;2022-09-09T08:23:56;27.80;87.40
21092;DHT22;10704;42.678;23.288;2022-09-09T08:26:29;28.10;85.30
21092;DHT22;10704;42.678;23.288;2022-09-09T08:28:57;28.30;84.50
21092;DHT22;10704;42.678;23.288;2022-09-09T08:31:35;28.10;82.90
21092;DHT22;10704;42.678;23.288;2022-09-09T08:34:05;27.20;84.90
21092;DHT22;10704;42.678;23.288;2022-09-09T08:36:36;27.10;86.60
21092;DHT22;10704;42.678;23.288;2022-09-09T08:39:04;27.10;86.60
21092;DHT22;10704;42.678;23.288;2022-09-09T08:49:47;27.10;86.00
21092;DHT22;10704;42.678;23.288;2022-09-09T08:52:24;27.50;85.40
21092;DHT22;10704;42.678;23.288;2022-09-09T08:54:51;28.60;82.20
21092;DHT22;10704;42.678;23.288;2022-09-09T08:57:26;28.90;79.80
21092;DHT22;10704;42.678;23.288;2022-09-09T08:59:55;29.00;79.40
21092;DHT22;10704;42.678;23.288;2022-09-09T09:02:34;29.60;77.90
21092;DHT22;10704;42.678;23.288;2022-09-09T09:05:32;29.70;75.40
21092;DHT22;10704;42.678;23.288;2022-09-09T09:10:45;30.30;73.00
21092;DHT22;10704;42.678;23.288;2022-09-09T09:13:46;30.50;71.50
21092;DHT22;10704;42.678;23.288;2022-09-09T09:16:38;30.60;69.90
21092;DHT22;10704;42.678;23.288;2022-09-09T09:19:05;30.20;70.40
21092;DHT22;10704;42.678;23.288;2022-09-09T09:21:42;30.10;71.90
21092;DHT22;10704;42.678;23.288;2022-09-09T09:25:15;29.60;71.50
21092;DHT22;10704;42.678;23.288;2022-09-09T09:30:39;28.70;73.90
21092;DHT22;10704;42.678;23.288;2022-09-09T09:35:42;28.00;74.70
21092;DHT22;10704;42.678;23.288;2022-09-09T09:38:18;27.30;77.20
21092;DHT22;10704;42.678;23.288;2022-09-09T09:41:05;27.50;77.30
21092;DHT22;10704;42.678;23.288;2022-09-09T09:43:33;28.50;75.90
21092;DHT22;10704;42.678;23.288;2022-09-09T09:46:04;29.40;73.30
21092;DHT22;10704;42.678;23.288;2022-09-09T09:48:31;29.10;72.50
21092;DHT22;10704;42.678;23.288;2022-09-09T09:51:00;28.50;74.10
21092;DHT22;10704;42.678;23.288;2022-09-09T09:53:30;27.90;75.60
21092;DHT22;10704;42.678;23.288;2022-09-09T09:56:11;27.90;75.60
21092;DHT22;10704;42.678;23.288;2022-09-09T10:01:31;28.00;77.10
21092;DHT22;10704;42.678;23.288;2022-09-09T10:04:22;28.30;75.50
21092;DHT22;10704;42.678;23.288;2022-09-09T10:06:53;28.40;75.90
21092;DHT22;10704;42.678;23.288;2022-09-09T10:09:30;28.50;75.60
21092;DHT22;10704;42.678;23.288;2022-09-09T10:14:47;27.80;77.00
21092;DHT22;10704;42.678;23.288;2022-09-09T10:17:20;27.70;79.50
21092;DHT22;10704;42.678;23.288;2022-09-09T10:20:39;27.70;78.80
21092;DHT22;10704;42.678;23.288;2022-09-09T10:23:06;27.60;79.00
21092;DHT22;10704;42.678;23.288;2022-09-09T10:37:44;27.20;82.20
21092;DHT22;10704;42.678;23.288;2022-09-09T10:46:05;26.90;83.50
21092;DHT22;10704;42.678;23.288;2022-09-09T10:56:16;26.90;84.70
21092;DHT22;10704;42.678;23.288;2022-09-09T10:58:52;26.90;85.10
21092;DHT22;10704;42.678;23.288;2022-09-09T11:01:41;26.90;84.80
21092;DHT22;10704;42.678;23.288;2022-09-09T11:04:18;26.80;86.10
21092;DHT22;10704;42.678;23.288;2022-09-09T11:06:50;26.50;86.60
21092;DHT22;10704;42.678;23.288;2022-09-09T11:09:23;26.40;88.10
21092;DHT22;10704;42.678;23.288;2022-09-09T11:11:55;26.40;88.30
21092;DHT22;10704;42.678;23.288;2022-09-09T11:14:28;26.30;88.80
21092;DHT22;10704;42.678;23.288;2022-09-09T11:17:06;26.30;90.00
21092;DHT22;10704;42.678;23.288;2022-09-09T11:19:40;26.40;90.00
21092;DHT22;10704;42.678;23.288;2022-09-09T11:24:52;26.70;90.20
21092;DHT22;10704;42.678;23.288;2022-09-09T11:27:27;27.00;90.10
21092;DHT22;10704;42.678;23.288;2022-09-09T11:33:16;26.80;90.80
21092;DHT22;10704;42.678;23.288;2022-09-09T11:38:51;27.00;91.70
21092;DHT22;10704;42.678;23.288;2022-09-09T11:41:18;27.30;91.50
21092;DHT22;10704;42.678;23.288;2022-09-09T11:43:52;27.50;91.20
21092;DHT22;10704;42.678;23.288;2022-09-09T11:46:36;27.40;91.60
21092;DHT22;10704;42.678;23.288;2022-09-09T11:49:26;27.60;91.50
21092;DHT22;10704;42.678;23.288;2022-09-09T11:51:52;27.70;90.90
21092;DHT22;10704;42.678;23.288;2022-09-09T11:54:33;27.50;91.00
21092;DHT22;10704;42.678;23.288;2022-09-09T11:57:05;27.80;91.20
21092;DHT22;10704;42.678;23.288;2022-09-09T11:59:50;28.40;90.80
21092;DHT22;10704;42.678;23.288;2022-09-09T12:02:29;28.90;89.10
21092;DHT22;10704;42.678;23.288;2022-09-09T12:05:11;29.60;86.90
21092;DHT22;10704;42.678;23.288;2022-09-09T12:10:30;30.70;82.60
21092;DHT22;10704;42.678;23.288;2022-09-09T12:13:28;30.50;82.20
21092;DHT22;10704;42.678;23.288;2022-09-09T12:15:58;30.50;81.30
21092;DHT22;10704;42.678;23.288;2022-09-09T12:18:32;30.40;81.80
21092;DHT22;10704;42.678;23.288;2022-09-09T12:27:26;30.20;80.30
21092;DHT22;10704;42.678;23.288;2022-09-09T12:32:25;30.00;79.90
21092;DHT22;10704;42.678;23.288;2022-09-09T12:35:07;29.40;81.40
21092;DHT22;10704;42.678;23.288;2022-09-09T12:37:38;29.40;81.20
21092;DHT22;10704;42.678;23.288;2022-09-09T12:42:41;29.40;82.10
21092;DHT22;10704;42.678;23.288;2022-09-09T12:45:21;29.00;81.10
21092;DHT22;10704;42.678;23.288;2022-09-09T12:50:25;28.40;81.30
21092;DHT22;10704;42.678;23.288;2022-09-09T12:53:02;28.60;80.50
21092;DHT22;10704;42.678;23.288;2022-09-09T12:55:31;28.80;80.20
21092;DHT22;10704;42.678;23.288;2022-09-09T12:58:00;28.80;79.50
21092;DHT22;10704;42.678;23.288;2022-09-09T13:00:30;29.00;80.10
21092;DHT22;10704;42.678;23.288;2022-09-09T13:03:02;28.50;81.80
21092;DHT22;10704;42.678;23.288;2022-09-09T13:05:36;27.70;84.20
21092;DHT22;10704;42.678;23.288;2022-09-09T13:08:13;27.20;86.40
21092;DHT22;10704;42.678;23.288;2022-09-09T13:10:57;27.10;87.80
21092;DHT22;10704;42.678;23.288;2022-09-09T13:13:39;27.00;88.70
21092;DHT22;10704;42.678;23.288;2022-09-09T13:16:07;26.60;90.30
21092;DHT22;10704;42.678;23.288;2022-09-09T13:18:43;26.70;91.00
21092;DHT22;10704;42.678;23.288;2022-09-09T13:21:09;27.10;90.80
21092;DHT22;10704;42.678;23.288;2022-09-09T13:23:37;27.10;90.80
21092;DHT22;10704;42.678;23.288;2022-09-09T13:26:26;27.00;91.30
21092;DHT22;10704;42.678;23.288;2022-09-09T13:28:54;26.90;91.10
21092;DHT22;10704;42.678;23.288;2022-09-09T13:31:34;26.80;90.80
21092;DHT22;10704;42.678;23.288;2022-09-09T13:34:11;27.00;91.00
21092;DHT22;10704;42.678;23.288;2022-09-09T13:36:38;27.30;90.70
21092;DHT22;10704;42.678;23.288;2022-09-09T13:39:16;27.40;90.00
21092;DHT22;10704;42.678;23.288;2022-09-09T13:41:44;27.30;90.30
21092;DHT22;10704;42.678;23.288;2022-09-09T13:44:38;27.40;90.30
21092;DHT22;10704;42.678;23.288;2022-09-09T13:47:19;27.30;90.20
21092;DHT22;10704;42.678;23.288;2022-09-09T13:49:46;27.50;90.30
21092;DHT22;10704;42.678;23.288;2022-09-09T13:52:17;27.80;82.40
21092;DHT22;10704;42.678;23.288;2022-09-09T13:54:50;28.10;83.30
21092;DHT22;10704;42.678;23.288;2022-09-09T13:57:25;28.00;86.60
21092;DHT22;10704;42.678;23.288;2022-09-09T13:59:53;27.80;88.00
21092;DHT22;10704;42.678;23.288;2022-09-09T14:02:20;27.50;88.30
21092;DHT22;10704;42.678;23.288;2022-09-09T14:04:49;27.70;88.10
21092;DHT22;10704;42.678;23.288;2022-09-09T14:07:17;27.80;87.80
21092;DHT22;10704;42.678;23.288;2022-09-09T14:09:44;27.70;87.60
21092;DHT22;10704;42.678;23.288;2022-09-09T14:12:16;28.40;86.60
21092;DHT22;10704;42.678;23.288;2022-09-09T14:14:42;28.80;84.60
21092;DHT22;10704;42.678;23.288;2022-09-09T14:17:09;29.20;82.30
21092;DHT22;10704;42.678;23.288;2022-09-09T14:19:35;29.40;82.20
21092;DHT22;10704;42.678;23.288;2022-09-09T14:22:03;29.40;81.00
21092;DHT22;10704;42.678;23.288;2022-09-09T14:24:29;29.00;80.60
21092;DHT22;10704;42.678;23.288;2022-09-09T14:26:55;28.50;83.30
21092;DHT22;10704;42.678;23.288;2022-09-09T14:29:21;28.20;84.80
21092;DHT22;10704;42.678;23.288;2022-09-09T14:31:47;28.20;85.80
21092;DHT22;10704;42.678;23.288;2022-09-09T14:34:13;28.70;85.20
21092;DHT22;10704;42.678;23.288;2022-09-09T14:36:40;28.80;84.70
21092;DHT22;10704;42.678;23.288;2022-09-09T14:39:07;29.00;84.50
21092;DHT22;10704;42.678;23.288;2022-09-09T14:41:33;29.30;83.10
21092;DHT22;10704;42.678;23.288;2022-09-09T14:43:59;29.00;83.30
21092;DHT22;10704;42.678;23.288;2022-09-09T14:46:26;28.90;83.20
21092;DHT22;10704;42.678;23.288;2022-09-09T14:48:52;28.90;83.70
21092;DHT22;10704;42.678;23.288;2022-09-09T14:51:21;28.40;83.90
21092;DHT22;10704;42.678;23.288;2022-09-09T14:53:50;27.80;85.30
21092;DHT22;10704;42.678;23.288;2022-09-09T14:56:18;27.60;86.20
21092;DHT22;10704;42.678;23.288;2022-09-09T14:58:44;27.60;86.70
21092;DHT22;10704;42.678;23.288;2022-09-09T15:01:14;27.70;86.50
21092;DHT22;10704;42.678;23.288;2022-09-09T15:03:42;27.60;86.40
21092;DHT22;10704;42.678;23.288;2022-09-09T15:09:55;27.40;87.60
21092;DHT22;10704;42.678;23.288;2022-09-09T15:12:22;27.00;88.50
21092;DHT22;10704;42.678;23.288;2022-09-09T15:14:48;26.70;89.80
21092;DHT22;10704;42.678;23.288;2022-09-09T15:17:14;26.80;90.20
21092;DHT22;10704;42.678;23.288;2022-09-09T15:19:40;26.80;90.40
21092;DHT22;10704;42.678;23.288;2022-09-09T15:22:08;26.90;90.50
21092;DHT22;10704;42.678;23.288;2022-09-09T15:24:34;27.00;90.30
21092;DHT22;10704;42.678;23.288;2022-09-09T15:27:01;27.10;90.20
21092;DHT22;10704;42.678;23.288;2022-09-09T15:29:27;27.80;89.40
21092;DHT22;10704;42.678;23.288;2022-09-09T15:31:54;28.30;86.20
21092;DHT22;10704;42.678;23.288;2022-09-09T15:34:21;28.60;84.40
21092;DHT22;10704;42.678;23.288;2022-09-09T15:36:47;28.30;84.20
21092;DHT22;10704;42.678;23.288;2022-09-09T15:39:15;28.30;84.50
21092;DHT22;10704;42.678;23.288;2022-09-09T15:41:43;28.00;85.00
21092;DHT22;10704;42.678;23.288;2022-09-09T15:44:10;27.90;85.50
21092;DHT22;10704;42.678;23.288;2022-09-09T15:46:46;27.80;85.80
21092;DHT22;10704;42.678;23.288;2022-09-09T15:49:24;27.60;86.40
21092;DHT22;10704;42.678;23.288;2022-09-09T15:51:53;27.50;87.60
21092;DHT22;10704;42.678;23.288;2022-09-09T15:54:21;27.10;88.20
21092;DHT22;10704;42.678;23.288;2022-09-09T15:56:52;26.80;90.00
21092;DHT22;10704;42.678;23.288;2022-09-09T15:59:20;26.90;90.00
21092;DHT22;10704;42.678;23.288;2022-09-09T16:01:46;27.00;90.00
21092;DHT22;10704;42.678;23.288;2022-09-09T16:04:12;26.80;90.20
21092;DHT22;10704;42.678;23.288;2022-09-09T16:06:38;26.40;91.00
21092;DHT22;10704;42.678;23.288;2022-09-09T16:09:06;26.20;91.30
21092;DHT22;10704;42.678;23.288;2022-09-09T16:11:35;26.10;91.90
21092;DHT22;10704;42.678;23.288;2022-09-09T16:14:02;25.90;92.30
21092;DHT22;10704;42.678;23.288;2022-09-09T16:16:29;25.90;92.90
21092;DHT22;10704;42.678;23.288;2022-09-09T16:18:58;25.80;93.50
21092;DHT22;10704;42.678;23.288;2022-09-09T16:23:52;25.40;94.80
21092;DHT22;10704;42.678;23.288;2022-09-09T16:26:21;25.10;96.10
21092;DHT22;10704;42.678;23.288;2022-09-09T16:28:48;25.00;96.80
21092;DHT22;10704;42.678;23.288;2022-09-09T16:31:20;25.00;97.40
21092;DHT22;10704;42.678;23.288;2022-09-09T16:33:47;25.00;98.00
21092;DHT22;10704;42.678;23.288;2022-09-09T16:36:17;24.90;99.40
21092;DHT22;10704;42.678;23.288;2022-09-09T16:39:05;24.90;99.90
21092;DHT22;10704;42.678;23.288;2022-09-09T16:42:00;24.80;99.90
21092;DHT22;10704;42.678;23.288;2022-09-09T16:44:27;24.70;99.90
21092;DHT22;10704;42.678;23.288;2022-09-09T16:46:53;24.60;99.90
21092;DHT22;10704;42.678;23.288;2022-09-09T16:49:20;24.60;99.90
21092;DHT22;10704;42.678;23.288;2022-09-09T16:51:48;24.50;99.90
21092;DHT22;10704;42.678;23.288;2022-09-09T16:58:01;24.40;99.90
21092;DHT22;10704;42.678;23.288;2022-09-09T17:00:51;24.30;99.90
21092;DHT22;10704;42.678;23.288;2022-09-09T17:03:22;24.20;99.90
21092;DHT22;10704;42.678;23.288;2022-09-09T17:09:36;24.20;99.90
21092;DHT22;10704;42.678;23.288;2022-09-09T17:12:02;24.10;99.90
21092;DHT22;10704;42.678;23.288;2022-09-09T17:18:35;24.00;99.90
21092;DHT22;10704;42.678;23.288;2022-09-09T17:24:49;23.80;99.90
21092;DHT22;10704;42.678;23.288;2022-09-09T17:27:15;23.80;99.90
21092;DHT22;10704;42.678;23.288;2022-09-09T17:29:41;23.80;99.90
21092;DHT22;10704;42.678;23.288;2022-09-09T17:32:06;23.80;99.90
21092;DHT22;10704;42.678;23.288;2022-09-09T17:34:33;23.80;99.90
21092;DHT22;10704;42.678;23.288;2022-09-09T17:37:00;23.70;99.90
21092;DHT22;10704;42.678;23.288;2022-09-09T17:39:26;23.70;99.90
21092;DHT22;10704;42.678;23.288;2022-09-09T17:41:52;23.70;99.90
21092;DHT22;10704;42.678;23.288;2022-09-09T17:44:20;23.70;99.90
21092;DHT22;10704;42.678;23.288;2022-09-09T17:46:46;23.60;99.90
21092;DHT22;10704;42.678;23.288;2022-09-09T17:49:14;23.50;99.90
21092;DHT22;10704;42.678;23.288;2022-09-09T17:51:41;23.50;99.90
21092;DHT22;10704;42.678;23.288;2022-09-09T17:54:10;23.50;99.90
21092;DHT22;10704;42.678;23.288;2022-09-09T17:56:37;23.50;99.90
21092;DHT22;10704;42.678;23.288;2022-09-09T17:59:05;23.40;99.90
21092;DHT22;10704;42.678;23.288;2022-09-09T18:01:38;23.40;99.90
21092;DHT22;10704;42.678;23.288;2022-09-09T18:04:06;23.40;99.90
21092;DHT22;10704;42.678;23.288;2022-09-09T18:06:53;23.40;99.90
21092;DHT22;10704;42.678;23.288;2022-09-09T18:09:21;23.40;99.90
21092;DHT22;10704;42.678;23.288;2022-09-09T18:11:52;23.40;99.90